createdAt,value
2023-03-26T00:04:07.529Z,1.67
2023-03-26T00:08:24.829Z,1.30
2023-03-26T00:12:42.036Z,1.35
2023-03-26T00:16:59.412Z,1.17
2023-03-26T00:21:21.019Z,1.48
2023-03-26T00:25:41.407Z,1.83
2023-03-26T00:30:00.298Z,0.88
2023-03-26T00:34:18.571Z,1.08
2023-03-26T00:38:39.209Z,0.98
2023-03-26T00:42:56.586Z,1.30
2023-03-26T00:47:13.810Z,0.90
2023-03-26T00:51:33.533Z,1.30
2023-03-26T00:55:50.746Z,0.90
2023-03-26T01:00:11.492Z,1.08
2023-03-26T01:04:32.184Z,1.10
2023-03-26T01:08:51.136Z,1.00
2023-03-26T01:13:09.317Z,1.10
2023-03-26T01:17:34.215Z,1.05
2023-03-26T01:21:52.215Z,1.27
2023-03-26T01:26:52.734Z,1.40
2023-03-26T01:31:44.402Z,1.60
2023-03-26T01:36:23.707Z,1.10
2023-03-26T01:41:04.620Z,1.05
2023-03-26T01:45:25.709Z,1.20
2023-03-26T01:49:42.902Z,1.20
2023-03-26T01:54:01.892Z,1.20
2023-03-26T01:58:34.508Z,1.08
2023-03-26T02:03:18.571Z,1.33
2023-03-26T02:08:09.916Z,1.35
2023-03-26T02:12:28.809Z,1.45
2023-03-26T02:16:47.253Z,1.73
2023-03-26T02:21:21.801Z,1.27
2023-03-26T02:25:39.937Z,1.20
2023-03-26T02:29:57.046Z,1.48
2023-03-26T02:34:15.385Z,1.20
2023-03-26T02:38:35.250Z,1.42
2023-03-26T02:42:52.582Z,1.33
2023-03-26T02:47:10.185Z,1.17
2023-03-26T02:51:27.405Z,1.20
2023-03-26T02:55:45.306Z,1.27
2023-03-26T03:00:06.450Z,1.33
2023-03-26T03:04:23.591Z,1.17
2023-03-26T03:08:41.627Z,1.60
2023-03-26T03:12:59.401Z,1.67
2023-03-26T03:17:16.626Z,1.13
2023-03-26T03:21:33.923Z,1.42
2023-03-26T03:25:52.919Z,1.60
2023-03-26T03:30:12.999Z,1.92
2023-03-26T03:34:30.247Z,1.50
2023-03-26T03:38:47.473Z,1.70
2023-03-26T03:43:04.861Z,1.70
2023-03-26T03:47:22.905Z,1.67
2023-03-26T03:51:42.774Z,2.05
2023-03-26T03:56:02.020Z,2.58
2023-03-26T04:00:20.135Z,1.80
2023-03-26T04:04:38.158Z,2.03
2023-03-26T04:08:55.622Z,2.28
2023-03-26T04:13:13.837Z,1.70
2023-03-26T04:17:31.222Z,2.05
2023-03-26T04:21:49.479Z,1.75
2023-03-26T04:26:10.583Z,1.90
2023-03-26T04:30:27.882Z,2.30
2023-03-26T04:34:46.328Z,2.03
2023-03-26T04:43:22.653Z,1.90
2023-03-26T04:47:40.042Z,2.00
2023-03-26T04:51:57.355Z,1.80
2023-03-26T04:56:32.620Z,1.83
2023-03-26T05:00:50.053Z,2.00
2023-03-26T05:05:07.908Z,1.63
2023-03-26T05:09:28.745Z,2.03
2023-03-26T05:13:47.085Z,2.20
2023-03-26T05:18:04.425Z,2.05
2023-03-26T05:22:21.878Z,2.28
2023-03-26T05:26:39.151Z,1.80
2023-03-26T05:30:56.600Z,2.00
2023-03-26T05:35:17.022Z,2.03
2023-03-26T05:39:35.812Z,2.17
2023-03-26T05:48:10.334Z,1.80
2023-03-26T05:52:27.980Z,1.95
2023-03-26T05:56:45.244Z,1.92
2023-03-26T06:01:09.692Z,2.10
2023-03-26T06:05:27.123Z,1.67
2023-03-26T06:09:45.397Z,2.03
2023-03-26T06:14:02.663Z,1.83
2023-03-26T06:18:20.674Z,2.17
2023-03-26T06:22:37.934Z,2.40
2023-03-26T06:26:55.422Z,1.92
2023-03-26T06:31:13.003Z,1.70
2023-03-26T06:35:31.094Z,1.60
2023-03-26T06:39:48.467Z,1.70
2023-03-26T06:44:05.699Z,1.90
2023-03-26T06:48:23.239Z,1.88
2023-03-26T06:52:40.763Z,1.90
2023-03-26T06:56:59.200Z,1.90
2023-03-26T07:01:16.610Z,1.92
2023-03-26T07:05:34.008Z,1.98
2023-03-26T07:09:51.583Z,2.53
2023-03-26T07:14:08.754Z,2.28
2023-03-26T07:18:26.148Z,2.13
2023-03-26T07:22:43.724Z,1.83
2023-03-26T07:27:18.183Z,3.60
2023-03-26T07:31:54.065Z,2.67
2023-03-26T07:36:28.631Z,2.28
2023-03-26T07:41:06.930Z,2.47
2023-03-26T07:45:35.574Z,2.88
2023-03-26T07:49:55.212Z,2.55
2023-03-26T07:54:12.699Z,3.03
2023-03-26T07:58:51.403Z,2.50
2023-03-26T08:03:46.514Z,2.30
2023-03-26T08:08:28.482Z,2.30
2023-03-26T08:12:55.105Z,2.30
2023-03-26T08:17:17.664Z,1.92
2023-03-26T08:21:48.327Z,2.40
2023-03-26T08:26:13.003Z,2.35
2023-03-26T08:30:31.146Z,2.45
2023-03-26T08:34:48.395Z,2.03
2023-03-26T08:39:06.152Z,2.45
2023-03-26T08:44:00.772Z,2.22
2023-03-26T08:48:31.448Z,2.20
2023-03-26T08:53:18.556Z,2.50
2023-03-26T08:58:06.248Z,2.58
2023-03-26T09:02:49.794Z,1.85
2023-03-26T09:07:44.497Z,1.80
2023-03-26T09:12:25.491Z,2.35
2023-03-26T09:17:05.835Z,2.20
2023-03-26T09:21:37.991Z,1.67
2023-03-26T09:26:21.610Z,2.13
2023-03-26T09:31:03.414Z,1.80
2023-03-26T09:35:42.582Z,1.73
2023-03-26T09:40:18.976Z,1.65
2023-03-26T09:45:10.674Z,2.10
2023-03-26T09:49:43.102Z,2.17
2023-03-26T09:54:14.558Z,2.22
2023-03-26T09:58:42.204Z,1.65
2023-03-26T10:03:11.521Z,1.90
2023-03-26T10:07:53.136Z,1.85
2023-03-26T10:12:41.848Z,1.77
2023-03-26T10:17:12.754Z,1.92
2023-03-26T10:21:49.642Z,1.58
2023-03-26T10:26:34.922Z,2.03
2023-03-26T10:31:08.318Z,2.10
2023-03-26T10:35:55.259Z,1.98
2023-03-26T10:40:20.271Z,1.70
2023-03-26T10:45:09.416Z,1.65
2023-03-26T10:49:54.794Z,2.40
2023-03-26T10:54:18.148Z,1.83
2023-03-26T10:58:48.756Z,2.25
2023-03-26T11:03:26.094Z,2.20
2023-03-26T11:07:51.873Z,2.10
2023-03-26T11:12:26.321Z,1.90
2023-03-26T11:17:40.072Z,1.98
2023-03-26T11:22:16.376Z,2.35
2023-03-26T11:26:55.850Z,1.77
2023-03-26T11:31:38.437Z,1.70
2023-03-26T11:36:06.050Z,2.00
2023-03-26T11:40:34.873Z,1.95
2023-03-26T11:45:02.281Z,2.05
2023-03-26T11:49:22.066Z,2.20
2023-03-26T11:53:39.924Z,2.45
2023-03-26T11:58:52.340Z,2.13
2023-03-26T12:03:25.719Z,1.83
2023-03-26T12:08:05.079Z,1.90
2023-03-26T12:12:30.649Z,1.90
2023-03-26T12:17:31.080Z,2.42
2023-03-26T12:22:38.847Z,2.97
2023-03-26T12:27:21.499Z,2.58
2023-03-26T12:32:15.286Z,2.47
2023-03-26T12:36:35.895Z,3.13
2023-03-26T12:44:43.027Z,2.08
2023-03-26T12:47:54.002Z,2.55
2023-03-26T12:50:47.604Z,2.90
2023-03-26T12:55:24.644Z,2.00
2023-03-26T12:59:54.839Z,2.10
2023-03-26T13:04:26.702Z,2.60
2023-03-26T13:08:59.386Z,2.53
2023-03-26T13:13:29.120Z,2.95
2023-03-26T13:18:12.806Z,2.65
2023-03-26T13:22:59.644Z,2.38
2023-03-26T13:27:50.237Z,2.78
2023-03-26T13:36:47.032Z,3.75
2023-03-26T13:41:24.150Z,4.80
2023-03-26T13:46:14.145Z,3.20
2023-03-26T13:50:41.205Z,4.20
2023-03-26T13:55:31.859Z,3.63
2023-03-26T14:00:13.170Z,2.83
2023-03-26T14:04:54.606Z,2.25
2023-03-26T14:09:25.157Z,2.20
2023-03-26T14:13:49.629Z,1.88
2023-03-26T14:18:15.695Z,2.10
2023-03-26T14:22:43.929Z,1.80
2023-03-26T14:27:14.472Z,1.30
2023-03-26T14:31:59.205Z,1.60
2023-03-26T14:36:35.617Z,2.20
2023-03-26T14:41:05.303Z,2.70
2023-03-26T14:45:46.099Z,1.40
2023-03-26T14:50:22.200Z,0.60
2023-03-26T14:54:43.862Z,0.75
2023-03-26T14:59:37.881Z,0.73
2023-03-26T15:04:31.773Z,0.50
2023-03-26T15:09:20.294Z,0.70
2023-03-26T15:14:22.676Z,0.50
2023-03-26T15:19:01.292Z,0.70
2023-03-26T15:23:36.632Z,0.80
2023-03-26T15:28:51.502Z,0.80
2023-03-26T15:33:36.160Z,0.90
2023-03-26T15:38:08.023Z,1.15
2023-03-26T15:42:46.818Z,1.40
2023-03-26T15:47:30.944Z,1.40
2023-03-26T15:52:15.925Z,1.60
2023-03-26T15:56:58.275Z,1.70
2023-03-26T16:01:41.898Z,1.58
2023-03-26T16:06:02.254Z,2.50
2023-03-26T16:10:35.883Z,1.60
2023-03-26T16:15:21.051Z,2.60
2023-03-26T16:19:41.026Z,2.55
2023-03-26T16:24:20.175Z,2.63
2023-03-26T16:29:11.720Z,1.80
2023-03-26T16:33:49.720Z,1.38
2023-03-26T16:38:13.410Z,2.05
2023-03-26T16:42:40.756Z,2.63
2023-03-26T16:47:06.720Z,3.25
2023-03-26T16:51:48.688Z,3.13
2023-03-26T16:56:38.945Z,7.38
2023-03-26T17:01:11.148Z,2.50
2023-03-26T17:05:40.029Z,3.13
2023-03-26T17:10:19.344Z,1.77
2023-03-26T17:14:51.353Z,1.80
2023-03-26T17:19:25.574Z,1.60
2023-03-26T17:24:23.336Z,2.22
2023-03-26T17:29:08.410Z,3.97
2023-03-26T17:33:34.249Z,4.03
2023-03-26T17:37:53.973Z,4.78
2023-03-26T17:42:32.969Z,3.20
2023-03-26T17:46:51.937Z,3.30
2023-03-26T17:51:27.580Z,10.55
2023-03-26T17:55:46.880Z,10.90
2023-03-26T18:00:07.772Z,13.07
2023-03-26T18:04:39.839Z,10.80
2023-03-26T18:09:30.164Z,11.00
2023-03-26T18:13:57.778Z,8.52
2023-03-26T18:18:26.421Z,6.45
2023-03-26T18:22:44.888Z,5.35
2023-03-26T18:27:12.456Z,6.15
2023-03-26T18:31:31.850Z,7.00
2023-03-26T18:35:55.632Z,5.32
2023-03-26T18:40:22.180Z,4.70
2023-03-26T18:44:39.631Z,2.95
2023-03-26T18:48:58.789Z,7.22
2023-03-26T18:53:22.271Z,4.68
2023-03-26T18:57:43.163Z,1.90
2023-03-26T19:02:06.246Z,2.47
2023-03-26T19:06:24.817Z,2.42
2023-03-26T19:10:44.139Z,3.25
2023-03-26T19:15:14.671Z,3.00
2023-03-26T19:19:37.351Z,3.13
2023-03-26T19:23:55.686Z,3.80
2023-03-26T19:28:24.769Z,5.30
2023-03-26T19:37:30.074Z,5.97
2023-03-26T19:41:51.653Z,4.35
2023-03-26T19:46:13.685Z,4.60
2023-03-26T19:50:34.689Z,5.05
2023-03-26T19:55:17.919Z,5.20
2023-03-26T19:59:35.358Z,4.25
2023-03-26T20:03:56.460Z,2.65
2023-03-26T20:08:15.762Z,3.25
2023-03-26T20:12:33.320Z,2.17
2023-03-26T20:16:51.138Z,2.78
2023-03-26T20:21:11.466Z,2.50
2023-03-26T20:25:46.485Z,2.00
2023-03-26T20:30:05.838Z,1.40
2023-03-26T20:34:24.577Z,1.65
2023-03-26T20:38:43.525Z,1.73
2023-03-26T20:43:04.035Z,1.08
2023-03-26T20:47:21.265Z,1.20
2023-03-26T20:51:39.305Z,1.67
2023-03-26T20:55:57.299Z,1.70
2023-03-26T21:00:26.241Z,1.57
2023-03-26T21:09:01.471Z,1.70
2023-03-26T21:13:38.948Z,1.73
2023-03-26T21:17:57.098Z,2.10
2023-03-26T21:22:55.037Z,2.20
2023-03-26T21:27:18.331Z,2.95
2023-03-26T21:31:38.027Z,4.03
2023-03-26T21:35:57.269Z,2.30
2023-03-26T21:40:16.993Z,2.50
2023-03-26T21:44:34.688Z,2.60
2023-03-26T21:48:52.313Z,2.67
2023-03-26T21:53:15.938Z,1.92
2023-03-26T21:57:37.938Z,1.70
2023-03-26T22:02:28.841Z,1.50
2023-03-26T22:07:01.064Z,1.27
2023-03-26T22:11:18.753Z,2.10
2023-03-26T22:15:36.232Z,3.40
2023-03-26T22:19:53.634Z,4.00
2023-03-26T22:24:10.951Z,3.58
2023-03-26T22:28:28.477Z,4.30
2023-03-26T22:32:45.780Z,4.22
2023-03-26T22:37:05.645Z,3.75
2023-03-26T22:41:23.252Z,6.07
2023-03-26T22:45:41.105Z,7.00
2023-03-26T22:49:58.377Z,8.80
2023-03-26T22:54:15.604Z,8.90
2023-03-26T22:58:34.204Z,7.70
2023-03-26T23:07:09.601Z,7.10
2023-03-26T23:11:29.893Z,8.07
2023-03-26T23:15:54.380Z,6.80
2023-03-26T23:20:15.046Z,8.02
2023-03-26T23:24:32.571Z,9.70
2023-03-26T23:28:51.231Z,8.18
2023-03-26T23:33:08.996Z,7.28
2023-03-26T23:37:26.745Z,6.73
2023-03-26T23:41:44.174Z,6.50
2023-03-26T23:46:01.403Z,4.95
2023-03-26T23:50:19.122Z,4.82
2023-03-26T23:54:36.959Z,4.77
2023-03-26T23:58:59.210Z,5.53
